Time;durP1;ratioP1;P1;durP2;ratioP2;P2;SDS_P1;SDS_P2;PMS_P1;PMS_P2;Temp;Humidity;BMP_temperature;BMP_pressure;BME280_temperature;BME280_humidity;BME280_pressure;Samples;Min_cycle;Max_cycle;Signal;HPM_P1;HPM_P2
2023/02/26 00:00:19;;;;;;;;;;;;;;;;;;5097056;28;19909;-70
2023/02/26 00:02:47;;;;;;;;;;;;;;;;;;5096144;28;19916;-70
2023/02/26 00:05:13;;;;;;;;;;;;;;;;;;5097356;28;19942;-71
2023/02/26 00:07:39;;;;;;;;;;;;;;;;;;5097049;28;20308;-70
2023/02/26 00:10:05;;;;;;;;;;;;;;;;;;5097409;28;20357;-70
2023/02/26 00:12:31;;;;;;;;;;;;;;;;;;5097304;28;19912;-70
2023/02/26 00:14:57;;;;;;;;;;;;;;;;;;5095924;28;19931;-73
2023/02/26 00:17:23;;;;;;;;;;;;;;;;;;5095938;28;19908;-71
2023/02/26 00:19:49;;;;;;;;;;;;;;;;;;5096910;28;20002;-72
2023/02/26 00:22:15;;;;;;;;;;;;;;;;;;5095659;28;20495;-72
2023/02/26 00:24:41;;;;;;;;;;;;;;;;;;5097292;28;20299;-71
2023/02/26 00:27:07;;;;;;;;;;;;;;;;;;5096703;28;20372;-71
2023/02/26 00:29:33;;;;;;;;;;;;;;;;;;5096969;28;19915;-70
2023/02/26 00:31:59;;;;;;;;;;;;;;;;;;5097249;28;19999;-70
2023/02/26 00:34:25;;;;;;;;;;;;;;;;;;5096270;28;19915;-70
2023/02/26 00:36:50;;;;;;;;;;;;;;;;;;5096838;28;20003;-70
2023/02/26 00:39:16;;;;;;;;;;;;;;;;;;5095368;28;19916;-70
2023/02/26 00:41:42;;;;;;;;;;;;;;;;;;5096291;28;19908;-70
2023/02/26 00:44:08;;;;;;;;;;;;;;;;;;5096508;28;19916;-70
2023/02/26 00:46:34;;;;;;;;;;;;;;;;;;5096981;28;19976;-70
2023/02/26 00:49:00;;;;;;;;;;;;;;;;;;5096028;28;20396;-70
2023/02/26 00:51:26;;;;;;;;;;;;;;;;;;5095234;28;19987;-70
2023/02/26 00:53:52;;;;;;;;;;;;;;;;;;5096346;28;20356;-70
2023/02/26 00:56:18;;;;;;;;;;;;;;;;;;5095405;28;19931;-70
2023/02/26 00:58:44;;;;;;;;;;;;;;;;;;5096363;28;19980;-70
2023/02/26 01:01:10;;;;;;;;;;;;;;;;;;5096341;28;20330;-71
2023/02/26 01:03:36;;;;;;;;;;;;;;;;;;5095800;28;20288;-70
2023/02/26 01:06:03;;;;;;;;;;;;;;;;;;5096342;28;20005;-71
2023/02/26 01:08:29;;;;;;;;;;;;;;;;;;5094896;28;20360;-71
2023/02/26 01:10:55;;;;;;;;;;;;;;;;;;5094607;28;19955;-71
2023/02/26 01:13:20;;;;;;;;;;;;;;;;;;5096175;28;19912;-70
2023/02/26 01:15:46;;;;;;;;;;;;;;;;;;5096151;28;19915;-71
2023/02/26 01:18:12;;;;;;;;;;;;;;;;;;5095709;28;19943;-71
2023/02/26 01:20:40;;;;;;;;;;;;;;;;;;5094863;28;19930;-70
2023/02/26 01:23:06;;;;;;;;;;;;;;;;;;5095327;28;19927;-70
2023/02/26 01:25:32;;;;;;;;;;;;;;;;;;5094498;28;20006;-70
2023/02/26 01:27:58;;;;;;;;;;;;;;;;;;5095771;28;19924;-71
2023/02/26 01:30:24;;;;;;;;;;;;;;;;;;5095349;28;19908;-70
2023/02/26 01:32:50;;;;;;;;;;;;;;;;;;5095745;28;19920;-70
2023/02/26 01:35:16;;;;;;;;;;;;;;;;;;5095616;28;19908;-70
2023/02/26 01:37:42;;;;;;;;;;;;;;;;;;5095314;28;19908;-70
2023/02/26 01:40:07;;;;;;;;;;;;;;;;;;5095462;28;20007;-70
2023/02/26 01:42:33;;;;;;;;;;;;;;;;;;5095376;28;19942;-70
2023/02/26 01:44:59;;;;;;;;;;;;;;;;;;5093586;28;19908;-70
2023/02/26 01:47:25;;;;;;;;;;;;;;;;;;5095256;28;19908;-70
2023/02/26 01:49:51;;;;;;;;;;;;;;;;;;5095207;28;19912;-70
2023/02/26 01:52:17;;;;;;;;;;;;;;;;;;5094869;28;19908;-70
2023/02/26 01:54:43;;;;;;;;;;;;;;;;;;5095029;28;19931;-70
2023/02/26 01:57:09;;;;;;;;;;;;;;;;;;5095243;28;20342;-70
2023/02/26 01:59:35;;;;;;;;;;;;;;;;;;5093255;28;20385;-70
2023/02/26 02:02:02;;;;;;;;;;;;;;;;;;5093831;28;20284;-70
2023/02/26 02:04:28;;;;;;;;;;;;;;;;;;5093724;28;19912;-70
2023/02/26 02:06:54;;;;;;;;;;;;;;;;;;5093776;28;19908;-70
2023/02/26 02:09:19;;;;;;;;;;;;;;;;;;5095330;28;20296;-71
2023/02/26 02:11:46;;;;;;;;;;;;;;;;;;5095052;28;19915;-70
2023/02/26 02:14:12;;;;;;;;;;;;;;;;;;5094583;28;20330;-70
2023/02/26 02:16:38;;;;;;;;;;;;;;;;;;5094998;28;19991;-70
2023/02/26 02:19:05;;;;;;;;;;;;;;;;;;5093499;28;19908;-70
2023/02/26 02:21:31;;;;;;;;;;;;;;;;;;5094357;28;19973;-70
2023/02/26 02:23:57;;;;;;;;;;;;;;;;;;5094533;28;20319;-70
2023/02/26 02:26:23;;;;;;;;;;;;;;;;;;5093255;28;20369;-70
2023/02/26 02:28:49;;;;;;;;;;;;;;;;;;5093374;28;20364;-70
2023/02/26 02:31:14;;;;;;;;;;;;;;;;;;5093256;28;19908;-70
2023/02/26 02:33:40;;;;;;;;;;;;;;;;;;5094385;28;20399;-70
2023/02/26 02:36:06;;;;;;;;;;;;;;;;;;5094549;28;20269;-70
2023/02/26 02:38:32;;;;;;;;;;;;;;;;;;5093123;28;19915;-70
2023/02/26 02:40:58;;;;;;;;;;;;;;;;;;5094210;28;19931;-70
2023/02/26 02:43:24;;;;;;;;;;;;;;;;;;5092976;28;19920;-70
2023/02/26 02:45:50;;;;;;;;;;;;;;;;;;5094353;28;19995;-70
2023/02/26 02:48:16;;;;;;;;;;;;;;;;;;5093938;28;19977;-70
2023/02/26 02:50:42;;;;;;;;;;;;;;;;;;5094258;28;19909;-70
2023/02/26 02:53:08;;;;;;;;;;;;;;;;;;5092992;28;19908;-70
2023/02/26 02:55:34;;;;;;;;;;;;;;;;;;5093775;28;19914;-70
2023/02/26 02:58:00;;;;;;;;;;;;;;;;;;5092773;28;19934;-70
2023/02/26 03:00:26;;;;;;;;;;;;;;;;;;5094280;28;19908;-70
2023/02/26 03:02:52;;;;;;;;;;;;;;;;;;5093717;28;19918;-70
2023/02/26 03:05:18;;;;;;;;;;;;;;;;;;5092806;28;19915;-70
2023/02/26 03:07:44;;;;;;;;;;;;;;;;;;5094088;28;19908;-70
2023/02/26 03:10:10;;;;;;;;;;;;;;;;;;5093651;28;19947;-70
2023/02/26 03:12:36;;;;;;;;;;;;;;;;;;5093931;28;20006;-70
2023/02/26 03:15:02;;;;;;;;;;;;;;;;;;5092664;28;19908;-70
2023/02/26 03:17:28;;;;;;;;;;;;;;;;;;5093318;28;20006;-70
2023/02/26 03:19:54;;;;;;;;;;;;;;;;;;5093842;28;19915;-70
2023/02/26 03:22:20;;;;;;;;;;;;;;;;;;5093471;28;20300;-70
2023/02/26 03:24:46;;;;;;;;;;;;;;;;;;5093370;28;19969;-70
2023/02/26 03:27:12;;;;;;;;;;;;;;;;;;5093844;28;20367;-70
2023/02/26 03:29:37;;;;;;;;;;;;;;;;;;5093606;28;19943;-70
2023/02/26 03:32:03;;;;;;;;;;;;;;;;;;5093862;28;19908;-70
2023/02/26 03:34:29;;;;;;;;;;;;;;;;;;5093781;28;19915;-70
2023/02/26 03:36:55;;;;;;;;;;;;;;;;;;5091995;28;20363;-70
2023/02/26 03:39:21;;;;;;;;;;;;;;;;;;5093718;28;19913;-70
2023/02/26 03:41:47;;;;;;;;;;;;;;;;;;5092367;28;19935;-70
2023/02/26 03:44:13;;;;;;;;;;;;;;;;;;5093210;28;19916;-70
2023/02/26 03:46:39;;;;;;;;;;;;;;;;;;5093604;28;20438;-70
2023/02/26 03:49:05;;;;;;;;;;;;;;;;;;5093582;28;19998;-70
2023/02/26 03:51:31;;;;;;;;;;;;;;;;;;5093181;28;19919;-70
2023/02/26 03:53:57;;;;;;;;;;;;;;;;;;5093599;28;19933;-70
2023/02/26 03:56:23;;;;;;;;;;;;;;;;;;5092301;28;19958;-70
2023/02/26 03:58:49;;;;;;;;;;;;;;;;;;5091746;28;19908;-71
2023/02/26 04:01:15;;;;;;;;;;;;;;;;;;5093457;28;19908;-71
2023/02/26 04:03:41;;;;;;;;;;;;;;;;;;5093354;28;19920;-70
2023/02/26 04:06:07;;;;;;;;;;;;;;;;;;5093060;28;19909;-70
2023/02/26 04:08:33;;;;;;;;;;;;;;;;;;5092156;28;19908;-70
2023/02/26 04:10:59;;;;;;;;;;;;;;;;;;5093391;28;19908;-70
2023/02/26 04:13:25;;;;;;;;;;;;;;;;;;5091629;28;20007;-70
2023/02/26 04:15:51;;;;;;;;;;;;;;;;;;5093499;28;20002;-70
2023/02/26 04:18:17;;;;;;;;;;;;;;;;;;5091962;28;19920;-70
2023/02/26 04:20:43;;;;;;;;;;;;;;;;;;5092914;28;19908;-70
2023/02/26 04:23:09;;;;;;;;;;;;;;;;;;5093173;28;19966;-70
2023/02/26 04:25:35;;;;;;;;;;;;;;;;;;5093264;28;19908;-70
2023/02/26 04:28:01;;;;;;;;;;;;;;;;;;5092778;28;19916;-71
2023/02/26 04:30:27;;;;;;;;;;;;;;;;;;5094757;28;19908;-70
2023/02/26 04:32:53;;;;;;;;;;;;;;;;;;5095108;28;20279;-70
2023/02/26 04:35:18;;;;;;;;;;;;;;;;;;5095582;28;19915;-70
2023/02/26 04:37:44;;;;;;;;;;;;;;;;;;5096716;28;20003;-70
2023/02/26 04:40:10;;;;;;;;;;;;;;;;;;5096460;28;19908;-70
2023/02/26 04:42:36;;;;;;;;;;;;;;;;;;5095331;28;19912;-70
2023/02/26 04:45:02;;;;;;;;;;;;;;;;;;5095292;28;19918;-71
2023/02/26 04:47:28;;;;;;;;;;;;;;;;;;5096228;28;20009;-70
2023/02/26 04:49:54;;;;;;;;;;;;;;;;;;5096594;28;19908;-70
2023/02/26 04:52:20;;;;;;;;;;;;;;;;;;5096907;28;20007;-70
2023/02/26 04:54:46;;;;;;;;;;;;;;;;;;5096167;28;20378;-70
2023/02/26 04:57:12;;;;;;;;;;;;;;;;;;5096624;28;19908;-70
2023/02/26 04:59:38;;;;;;;;;;;;;;;;;;5096407;28;19908;-70
2023/02/26 05:02:04;;;;;;;;;;;;;;;;;;5095969;28;19934;-70
2023/02/26 05:04:30;;;;;;;;;;;;;;;;;;5094956;28;20376;-70
2023/02/26 05:06:56;;;;;;;;;;;;;;;;;;5094890;28;19982;-70
2023/02/26 05:09:22;;;;;;;;;;;;;;;;;;5095870;28;19953;-70
2023/02/26 05:11:48;;;;;;;;;;;;;;;;;;5096153;28;19912;-70
2023/02/26 05:14:14;;;;;;;;;;;;;;;;;;5096089;28;19915;-70
2023/02/26 05:16:40;;;;;;;;;;;;;;;;;;5095587;28;19999;-70
2023/02/26 05:19:06;;;;;;;;;;;;;;;;;;5095898;28;19908;-70
2023/02/26 05:21:31;;;;;;;;;;;;;;;;;;5095874;28;19988;-70
2023/02/26 05:23:57;;;;;;;;;;;;;;;;;;5095235;28;20030;-70
2023/02/26 05:26:23;;;;;;;;;;;;;;;;;;5095909;28;19915;-70
2023/02/26 05:28:49;;;;;;;;;;;;;;;;;;5095770;28;19908;-71
2023/02/26 05:31:15;;;;;;;;;;;;;;;;;;5093996;28;20003;-70
2023/02/26 05:33:42;;;;;;;;;;;;;;;;;;5095809;28;19956;-70
2023/02/26 05:36:08;;;;;;;;;;;;;;;;;;5096132;28;19915;-70
2023/02/26 05:38:34;;;;;;;;;;;;;;;;;;5093866;28;20444;-70
2023/02/26 05:40:59;;;;;;;;;;;;;;;;;;5094124;28;20016;-70
2023/02/26 05:43:26;;;;;;;;;;;;;;;;;;5094912;28;19916;-70
2023/02/26 05:45:52;;;;;;;;;;;;;;;;;;5095396;28;19909;-70
2023/02/26 05:48:18;;;;;;;;;;;;;;;;;;5095385;28;19912;-70
2023/02/26 05:50:43;;;;;;;;;;;;;;;;;;5095137;28;19912;-69
2023/02/26 05:53:09;;;;;;;;;;;;;;;;;;5093996;28;19908;-69
2023/02/26 05:55:35;;;;;;;;;;;;;;;;;;5093888;28;19908;-69
2023/02/26 05:58:01;;;;;;;;;;;;;;;;;;5094714;28;19926;-70
2023/02/26 06:00:27;;;;;;;;;;;;;;;;;;5093851;28;19912;-70
2023/02/26 06:02:53;;;;;;;;;;;;;;;;;;5095423;28;19916;-70
2023/02/26 06:05:19;;;;;;;;;;;;;;;;;;5093429;28;19912;-71
2023/02/26 06:07:45;;;;;;;;;;;;;;;;;;5093823;28;19908;-71
2023/02/26 06:10:11;;;;;;;;;;;;;;;;;;5095226;28;19938;-71
2023/02/26 06:12:37;;;;;;;;;;;;;;;;;;5094495;28;19909;-71
2023/02/26 06:15:03;;;;;;;;;;;;;;;;;;5095012;28;19915;-71
2023/02/26 06:17:29;;;;;;;;;;;;;;;;;;5095235;28;19909;-70
2023/02/26 06:19:55;;;;;;;;;;;;;;;;;;5094489;28;19912;-71
2023/02/26 06:22:21;;;;;;;;;;;;;;;;;;5094566;28;19924;-70
2023/02/26 06:24:47;;;;;;;;;;;;;;;;;;5094788;28;19920;-71
2023/02/26 06:27:13;;;;;;;;;;;;;;;;;;5094188;28;20374;-69
2023/02/26 06:29:39;;;;;;;;;;;;;;;;;;5094597;28;20002;-69
2023/02/26 06:32:05;;;;;;;;;;;;;;;;;;5093205;28;19908;-70
2023/02/26 06:34:31;;;;;;;;;;;;;;;;;;5094172;28;19912;-69
2023/02/26 06:36:57;;;;;;;;;;;;;;;;;;5094515;28;19947;-70
2023/02/26 06:39:23;;;;;;;;;;;;;;;;;;5093129;28;19912;-70
2023/02/26 06:41:49;;;;;;;;;;;;;;;;;;5094046;28;19960;-70
2023/02/26 06:44:15;;;;;;;;;;;;;;;;;;5094262;28;19916;-70
2023/02/26 06:46:40;;;;;;;;;;;;;;;;;;5094043;28;19912;-70
2023/02/26 06:49:06;;;;;;;;;;;;;;;;;;5093056;28;19908;-69
2023/02/26 06:51:33;;;;;;;;;;;;;;;;;;5093000;28;19915;-70
2023/02/26 06:53:59;;;;;;;;;;;;;;;;;;5093698;28;19912;-69
2023/02/26 06:56:25;;;;;;;;;;;;;;;;;;5092971;28;19915;-70
2023/02/26 06:58:51;;;;;;;;;;;;;;;;;;5092840;28;19912;-69
2023/02/26 07:01:17;;;;;;;;;;;;;;;;;;5094111;28;19953;-70
2023/02/26 07:03:43;;;;;;;;;;;;;;;;;;5094437;28;20390;-70
2023/02/26 07:06:08;;;;;;;;;;;;;;;;;;5094169;28;19908;-70
2023/02/26 07:08:34;;;;;;;;;;;;;;;;;;5093641;28;20360;-70
2023/02/26 07:11:00;;;;;;;;;;;;;;;;;;5092773;28;19908;-70
2023/02/26 07:13:26;;;;;;;;;;;;;;;;;;5094029;28;19979;-70
2023/02/26 07:15:52;;;;;;;;;;;;;;;;;;5093577;28;19909;-70
2023/02/26 07:18:18;;;;;;;;;;;;;;;;;;5093902;28;19908;-70
2023/02/26 07:20:44;;;;;;;;;;;;;;;;;;5093890;28;20045;-69
2023/02/26 07:23:10;;;;;;;;;;;;;;;;;;5093380;28;19920;-69
2023/02/26 07:25:36;;;;;;;;;;;;;;;;;;5092620;28;19930;-69
2023/02/26 07:28:02;;;;;;;;;;;;;;;;;;5093845;28;20458;-69
2023/02/26 07:30:28;;;;;;;;;;;;;;;;;;5093663;28;19987;-70
2023/02/26 07:32:54;;;;;;;;;;;;;;;;;;5093871;28;20360;-70
2023/02/26 07:35:20;;;;;;;;;;;;;;;;;;5093775;28;20383;-70
2023/02/26 07:37:46;;;;;;;;;;;;;;;;;;5093363;28;20386;-70
2023/02/26 07:40:12;;;;;;;;;;;;;;;;;;5092399;28;19915;-70
2023/02/26 07:42:38;;;;;;;;;;;;;;;;;;5093905;28;19916;-70
2023/02/26 07:47:01;;;;;;;;;;;;;;;;;;5153154;27;19916;-70
2023/02/26 07:49:27;;;;;;;;;;;;;;;;;;5152853;27;20085;-70
2023/02/26 07:51:53;;;;;;;;;;;;;;;;;;5152333;27;19911;-71
2023/02/26 07:54:18;;;;;;;;;;;;;;;;;;5152728;27;19911;-71
2023/02/26 07:56:44;;;;;;;;;;;;;;;;;;5152680;27;19998;-71
2023/02/26 08:02:09;;;;;;;;;;;;;;;;;;5111734;27;19922;-71
2023/02/26 08:04:35;;;;;;;;;;;;;;;;;;5111262;28;20002;-70
2023/02/26 08:08:32;;;;;;;;;;;;;;;;;;5111693;27;20273;-71
2023/02/26 08:10:58;;;;;;;;;;;;;;;;;;5111315;28;19918;-71
2023/02/26 08:13:24;;;;;;;;;;;;;;;;;;5111608;28;19987;-71
2023/02/26 08:15:50;;;;;;;;;;;;;;;;;;5110214;28;19930;-70
2023/02/26 08:19:52;;;;;;;;;;;;;;;;;;5111381;27;19916;-70
2023/02/26 08:22:18;;;;;;;;;;;;;;;;;;5111792;28;20285;-71
2023/02/26 08:24:44;;;;;;;;;;;;;;;;;;5111644;28;19915;-71
2023/02/26 08:29:11;;;;;;;;;;;;;;;;;;5091332;28;19916;-71
2023/02/26 08:33:37;;;;;;;;;;;;;;;;;;5091107;27;19923;-70
2023/02/26 08:38:22;;;;;;;;;;;;;;;;;;5111854;27;19916;-71
2023/02/26 08:40:48;;;;;;;;;;;;;;;;;;5111315;28;20002;-70
2023/02/26 08:44:20;;;;;;;;;;;;;;;;;;5111825;27;19916;-71
2023/02/26 08:48:16;;;;;;;;;;;;;;;;;;5131926;27;19916;-71
2023/02/26 08:50:42;;;;;;;;;;;;;;;;;;5132262;28;19994;-70
2023/02/26 08:53:08;;;;;;;;;;;;;;;;;;5131832;27;19907;-71
2023/02/26 08:59:32;;;;;;;;;;;;;;;;;;5111685;27;19922;-69
2023/02/26 09:04:02;;;;;;;;;;;;;;;;;;5091782;27;19922;-71
2023/02/26 09:06:28;;;;;;;;;;;;;;;;;;5090019;28;20007;-71
2023/02/26 09:08:54;;;;;;;;;;;;;;;;;;5089498;28;19908;-70
2023/02/26 09:13:02;;;;;;;;;;;;;;;;;;5112189;27;19916;-71
2023/02/26 09:16:40;;;;;;;;;;;;;;;;;;5112061;27;19913;-71
2023/02/26 09:19:06;;;;;;;;;;;;;;;;;;5111711;28;20006;-71
2023/02/26 09:21:32;;;;;;;;;;;;;;;;;;5111202;28;19908;-71
2023/02/26 09:24:49;;;;;;;;;;;;;;;;;;5091976;28;20379;-71
2023/02/26 09:27:15;;;;;;;;;;;;;;;;;;5091407;28;20006;-71
2023/02/26 09:29:41;;;;;;;;;;;;;;;;;;5090909;28;20365;-70
2023/02/26 09:32:07;;;;;;;;;;;;;;;;;;5091236;28;19953;-71
2023/02/26 09:34:33;;;;;;;;;;;;;;;;;;5091200;28;19915;-71
2023/02/26 09:36:59;;;;;;;;;;;;;;;;;;5089471;28;20018;-71
2023/02/26 09:40:11;;;;;;;;;;;;;;;;;;5132327;27;20007;-69
2023/02/26 09:44:23;;;;;;;;;;;;;;;;;;5111335;27;19916;-71
2023/02/26 09:46:49;;;;;;;;;;;;;;;;;;5111730;28;19919;-71
2023/02/26 09:49:15;;;;;;;;;;;;;;;;;;5111804;28;19908;-71
2023/02/26 09:51:41;;;;;;;;;;;;;;;;;;5111260;28;19943;-71
2023/02/26 09:56:04;;;;;;;;;;;;;;;;;;5091573;28;19913;-71
2023/02/26 09:58:30;;;;;;;;;;;;;;;;;;5090973;28;20357;-71
2023/02/26 10:03:01;;;;;;;;;;;;;;;;;;5091516;28;19931;-70
2023/02/26 10:05:26;;;;;;;;;;;;;;;;;;5090842;28;19916;-69
2023/02/26 10:14:48;;;;;;;;;;;;;;;;;;5091387;28;20365;-71
2023/02/26 10:17:14;;;;;;;;;;;;;;;;;;5090078;28;20007;-71
2023/02/26 10:19:40;;;;;;;;;;;;;;;;;;5090797;28;19931;-71
2023/02/26 10:25:39;;;;;;;;;;;;;;;;;;5111673;27;20300;-71
2023/02/26 10:28:59;;;;;;;;;;;;;;;;;;5112058;27;19916;-71
2023/02/26 10:31:25;;;;;;;;;;;;;;;;;;5112023;28;19966;-71
2023/02/26 10:33:51;;;;;;;;;;;;;;;;;;5109961;28;20330;-71
2023/02/26 10:37:45;;;;;;;;;;;;;;;;;;5091865;28;20300;-71
2023/02/26 10:40:11;;;;;;;;;;;;;;;;;;5090870;28;20309;-70
2023/02/26 10:42:37;;;;;;;;;;;;;;;;;;5091756;28;19916;-70
2023/02/26 10:45:03;;;;;;;;;;;;;;;;;;5091143;28;19908;-70
2023/02/26 10:47:29;;;;;;;;;;;;;;;;;;5089468;28;20335;-70
2023/02/26 10:49:55;;;;;;;;;;;;;;;;;;5091132;28;20015;-70
2023/02/26 10:53:45;;;;;;;;;;;;;;;;;;5152586;27;20450;-72
2023/02/26 10:56:11;;;;;;;;;;;;;;;;;;5153025;27;19954;-70
2023/02/26 10:58:37;;;;;;;;;;;;;;;;;;5152907;27;19907;-71
2023/02/26 11:01:03;;;;;;;;;;;;;;;;;;5152351;27;19943;-70
2023/02/26 11:03:29;;;;;;;;;;;;;;;;;;5152756;27;19907;-70
2023/02/26 11:05:55;;;;;;;;;;;;;;;;;;5152657;27;19972;-71
2023/02/26 11:08:21;;;;;;;;;;;;;;;;;;5152296;27;19908;-70
2023/02/26 11:12:08;;;;;;;;;;;;;;;;;;5111859;27;20323;-71
2023/02/26 11:15:44;;;;;;;;;;;;;;;;;;5173561;27;20001;-70
2023/02/26 11:18:10;;;;;;;;;;;;;;;;;;5173756;27;19954;-70
2023/02/26 11:23:04;;;;;;;;;;;;;;;;;;5111246;27;19912;-71
2023/02/26 11:25:30;;;;;;;;;;;;;;;;;;5111884;28;20011;-71
2023/02/26 11:32:22;;;;;;;;;;;;;;;;;;5092162;28;19923;-70
2023/02/26 11:34:47;;;;;;;;;;;;;;;;;;5091294;28;19913;-70
2023/02/26 11:37:13;;;;;;;;;;;;;;;;;;5090700;28;19908;-69
2023/02/26 11:39:39;;;;;;;;;;;;;;;;;;5089813;28;19909;-70
2023/02/26 11:42:05;;;;;;;;;;;;;;;;;;5090657;28;19948;-70
2023/02/26 11:45:25;;;;;;;;;;;;;;;;;;5112160;27;19912;-69
2023/02/26 11:48:57;;;;;;;;;;;;;;;;;;5112048;27;19967;-70
2023/02/26 11:51:23;;;;;;;;;;;;;;;;;;5110429;28;19998;-71
2023/02/26 11:53:49;;;;;;;;;;;;;;;;;;5111576;28;19961;-71
2023/02/26 11:57:32;;;;;;;;;;;;;;;;;;5091203;28;19917;-71
2023/02/26 12:00:58;;;;;;;;;;;;;;;;;;5112499;27;19923;-71
2023/02/26 12:08:49;;;;;;;;;;;;;;;;;;5152848;27;19919;-70
2023/02/26 12:17:41;;;;;;;;;;;;;;;;;;5070864;28;19916;-70
2023/02/26 12:20:25;;;;;;;;;;;;;;;;;;5173969;27;20283;-71
2023/02/26 12:26:16;;;;;;;;;;;;;;;;;;5090962;27;20291;-71
2023/02/26 12:29:57;;;;;;;;;;;;;;;;;;5111838;27;20303;-71
2023/02/26 12:32:23;;;;;;;;;;;;;;;;;;5111414;28;20007;-70
2023/02/26 12:36:36;;;;;;;;;;;;;;;;;;5112555;27;19916;-71
2023/02/26 12:39:03;;;;;;;;;;;;;;;;;;5111352;28;20011;-71
2023/02/26 12:41:29;;;;;;;;;;;;;;;;;;5110424;28;20280;-71
2023/02/26 12:45:52;;;;;;;;;;;;;;;;;;5111842;27;20273;-71
2023/02/26 12:48:18;;;;;;;;;;;;;;;;;;5110377;28;19912;-72
2023/02/26 12:51:30;;;;;;;;;;;;;;;;;;5112538;27;19922;-71
2023/02/26 12:53:56;;;;;;;;;;;;;;;;;;5111358;28;19995;-71
2023/02/26 12:56:22;;;;;;;;;;;;;;;;;;5111717;28;19961;-71
2023/02/26 13:01:03;;;;;;;;;;;;;;;;;;5111543;27;19916;-71
2023/02/26 13:03:29;;;;;;;;;;;;;;;;;;5110406;28;20376;-71
2023/02/26 13:08:17;;;;;;;;;;;;;;;;;;5111407;27;19916;-71
2023/02/26 13:10:43;;;;;;;;;;;;;;;;;;5111932;28;20003;-70
2023/02/26 13:13:09;;;;;;;;;;;;;;;;;;5111772;28;19908;-70
2023/02/26 13:15:35;;;;;;;;;;;;;;;;;;5111201;28;19962;-69
2023/02/26 13:25:02;;;;;;;;;;;;;;;;;;5112480;27;19916;-71
2023/02/26 13:36:50;;;;;;;;;;;;;;;;;;5132675;27;20267;-71
2023/02/26 13:41:44;;;;;;;;;;;;;;;;;;5111547;27;19922;-70
2023/02/26 13:44:10;;;;;;;;;;;;;;;;;;5111716;28;20349;-71
2023/02/26 13:49:52;;;;;;;;;;;;;;;;;;5070948;28;19931;-71
2023/02/26 13:54:15;;;;;;;;;;;;;;;;;;5091505;27;19916;-71
2023/02/26 13:56:41;;;;;;;;;;;;;;;;;;5090986;28;19955;-71
2023/02/26 14:07:30;;;;;;;;;;;;;;;;;;5174241;27;20010;-70
2023/02/26 14:09:56;;;;;;;;;;;;;;;;;;5154773;27;20473;-71
2023/02/26 14:12:50;;;;;;;;;;;;;;;;;;5092164;27;19923;-71
2023/02/26 14:15:16;;;;;;;;;;;;;;;;;;5090069;28;20347;-69
2023/02/26 14:19:42;;;;;;;;;;;;;;;;;;5153158;27;20013;-71
2023/02/26 14:22:08;;;;;;;;;;;;;;;;;;5152941;27;20040;-71
2023/02/26 14:24:37;;;;;;;;;;;;;;;;;;5152421;27;19952;-71
2023/02/26 14:27:58;;;;;;;;;;;;;;;;;;5145097;27;20275;-71
2023/02/26 14:34:18;;;;;;;;;;;;;;;;;;5092021;27;19912;-71
2023/02/26 14:36:45;;;;;;;;;;;;;;;;;;5091320;28;20432;-71
2023/02/26 14:39:11;;;;;;;;;;;;;;;;;;5090691;28;20372;-70
2023/02/26 14:41:39;;;;;;;;;;;;;;;;;;5091204;28;19908;-70
2023/02/26 14:45:34;;;;;;;;;;;;;;;;;;5111212;27;20384;-71
2023/02/26 14:48:00;;;;;;;;;;;;;;;;;;5110314;28;20003;-71
2023/02/26 14:50:26;;;;;;;;;;;;;;;;;;5111706;28;20354;-71
2023/02/26 14:54:37;;;;;;;;;;;;;;;;;;5111754;27;19916;-71
2023/02/26 14:57:03;;;;;;;;;;;;;;;;;;5111768;28;20006;-71
2023/02/26 14:59:29;;;;;;;;;;;;;;;;;;5111179;28;19908;-71
2023/02/26 15:01:55;;;;;;;;;;;;;;;;;;5112073;28;20003;-71
2023/02/26 15:04:21;;;;;;;;;;;;;;;;;;5111590;28;19912;-71
2023/02/26 15:06:47;;;;;;;;;;;;;;;;;;5111041;28;20252;-70
2023/02/26 15:11:13;;;;;;;;;;;;;;;;;;5153159;27;19915;-71
2023/02/26 15:16:34;;;;;;;;;;;;;;;;;;5112379;27;20257;-71
2023/02/26 15:19:00;;;;;;;;;;;;;;;;;;5112208;28;20002;-71
2023/02/26 15:22:32;;;;;;;;;;;;;;;;;;5112499;27;20287;-69
2023/02/26 15:26:16;;;;;;;;;;;;;;;;;;5112251;27;19916;-71
2023/02/26 15:29:36;;;;;;;;;;;;;;;;;;5132675;27;20077;-71
2023/02/26 15:32:02;;;;;;;;;;;;;;;;;;5131968;28;19973;-71
2023/02/26 15:34:29;;;;;;;;;;;;;;;;;;5131729;28;20287;-71
2023/02/26 15:39:24;;;;;;;;;;;;;;;;;;5111818;27;20288;-69
2023/02/26 15:41:50;;;;;;;;;;;;;;;;;;5111533;28;20018;-69
2023/02/26 15:47:15;;;;;;;;;;;;;;;;;;5112229;27;20398;-71
2023/02/26 15:50:08;;;;;;;;;;;;;;;;;;5091090;27;19923;-71
2023/02/26 15:52:34;;;;;;;;;;;;;;;;;;5091344;28;20343;-71
2023/02/26 16:00:38;;;;;;;;;;;;;;;;;;5091373;27;20273;-71
2023/02/26 16:03:04;;;;;;;;;;;;;;;;;;5089664;28;20261;-71
2023/02/26 16:07:50;;;;;;;;;;;;;;;;;;5092050;27;19916;-71
2023/02/26 16:11:21;;;;;;;;;;;;;;;;;;5111300;27;20299;-71
2023/02/26 16:13:47;;;;;;;;;;;;;;;;;;5112231;28;20007;-71
2023/02/26 16:16:13;;;;;;;;;;;;;;;;;;5110001;28;19912;-71
2023/02/26 16:18:39;;;;;;;;;;;;;;;;;;5111556;28;20003;-71
2023/02/26 16:21:05;;;;;;;;;;;;;;;;;;5111628;28;19953;-71
2023/02/26 16:23:31;;;;;;;;;;;;;;;;;;5109772;28;19915;-71
2023/02/26 16:25:57;;;;;;;;;;;;;;;;;;5111356;28;19944;-70
2023/02/26 16:28:23;;;;;;;;;;;;;;;;;;5111425;28;19908;-70
2023/02/26 16:30:49;;;;;;;;;;;;;;;;;;5109581;28;19916;-69
2023/02/26 16:33:14;;;;;;;;;;;;;;;;;;5111243;28;19953;-69
2023/02/26 16:35:40;;;;;;;;;;;;;;;;;;5109930;28;19919;-71
2023/02/26 16:38:06;;;;;;;;;;;;;;;;;;5110866;28;19994;-71
2023/02/26 16:41:44;;;;;;;;;;;;;;;;;;5112197;27;19916;-71
2023/02/26 16:45:21;;;;;;;;;;;;;;;;;;5111523;27;20288;-71
2023/02/26 16:47:47;;;;;;;;;;;;;;;;;;5111687;28;20380;-71
2023/02/26 16:51:28;;;;;;;;;;;;;;;;;;5111515;27;19919;-70
2023/02/26 16:53:56;;;;;;;;;;;;;;;;;;5111713;28;20015;-70
2023/02/26 16:56:22;;;;;;;;;;;;;;;;;;5111708;28;20438;-71
2023/02/26 16:58:48;;;;;;;;;;;;;;;;;;5111148;28;19908;-71
2023/02/26 17:01:33;;;;;;;;;;;;;;;;;;5092246;28;20245;-71
2023/02/26 17:05:03;;;;;;;;;;;;;;;;;;5092073;27;19923;-70
2023/02/26 17:07:29;;;;;;;;;;;;;;;;;;5090934;28;20003;-71
2023/02/26 17:09:55;;;;;;;;;;;;;;;;;;5091257;28;19912;-70
2023/02/26 17:14:11;;;;;;;;;;;;;;;;;;5091045;27;19913;-71
2023/02/26 17:17:59;;;;;;;;;;;;;;;;;;5112111;27;19916;-71
2023/02/26 17:22:43;;;;;;;;;;;;;;;;;;5112463;27;19916;-71
2023/02/26 17:27:23;;;;;;;;;;;;;;;;;;5091267;27;19913;-71
2023/02/26 17:29:49;;;;;;;;;;;;;;;;;;5091495;28;20015;-71
2023/02/26 17:32:15;;;;;;;;;;;;;;;;;;5089953;28;19908;-71
2023/02/26 17:34:42;;;;;;;;;;;;;;;;;;5090976;28;20003;-70
2023/02/26 17:38:32;;;;;;;;;;;;;;;;;;5091988;27;19916;-70
2023/02/26 17:40:58;;;;;;;;;;;;;;;;;;5090915;28;19917;-71
2023/02/26 17:43:50;;;;;;;;;;;;;;;;;;5092031;27;19951;-71
2023/02/26 17:46:16;;;;;;;;;;;;;;;;;;5091301;28;20019;-71
2023/02/26 17:50:06;;;;;;;;;;;;;;;;;;5091605;27;19916;-70
2023/02/26 17:55:07;;;;;;;;;;;;;;;;;;5111258;27;19911;-70
2023/02/26 17:57:33;;;;;;;;;;;;;;;;;;5111669;28;20320;-70
2023/02/26 17:59:59;;;;;;;;;;;;;;;;;;5111602;28;19908;-70
2023/02/26 18:02:25;;;;;;;;;;;;;;;;;;5111276;28;19919;-71
2023/02/26 18:04:51;;;;;;;;;;;;;;;;;;5111502;28;19908;-70
2023/02/26 18:07:17;;;;;;;;;;;;;;;;;;5111559;28;19954;-71
2023/02/26 18:11:34;;;;;;;;;;;;;;;;;;5112311;27;19922;-70
2023/02/26 18:14:00;;;;;;;;;;;;;;;;;;5111657;28;20443;-71
2023/02/26 18:18:27;;;;;;;;;;;;;;;;;;5111990;27;19916;-71
2023/02/26 18:20:53;;;;;;;;;;;;;;;;;;5110339;28;20008;-70
2023/02/26 18:23:19;;;;;;;;;;;;;;;;;;5111235;28;19908;-71
2023/02/26 18:25:45;;;;;;;;;;;;;;;;;;5110385;28;19915;-71
2023/02/26 18:28:11;;;;;;;;;;;;;;;;;;5111592;28;19916;-71
2023/02/26 18:30:39;;;;;;;;;;;;;;;;;;5111032;28;20006;-70
2023/02/26 18:33:05;;;;;;;;;;;;;;;;;;5111424;28;20053;-70
2023/02/26 18:35:31;;;;;;;;;;;;;;;;;;5111378;28;19957;-70
2023/02/26 18:37:56;;;;;;;;;;;;;;;;;;5110849;28;19916;-70
2023/02/26 18:42:21;;;;;;;;;;;;;;;;;;5111674;27;19915;-71
2023/02/26 18:46:18;;;;;;;;;;;;;;;;;;5111321;27;19916;-70
2023/02/26 18:48:44;;;;;;;;;;;;;;;;;;5110196;28;19999;-70
2023/02/26 18:51:25;;;;;;;;;;;;;;;;;;5131962;27;20026;-71
2023/02/26 18:53:51;;;;;;;;;;;;;;;;;;5132080;27;19915;-71
2023/02/26 18:56:17;;;;;;;;;;;;;;;;;;5132031;28;19952;-71
2023/02/26 18:58:43;;;;;;;;;;;;;;;;;;5131597;28;19912;-71
2023/02/26 19:01:08;;;;;;;;;;;;;;;;;;5131998;28;19933;-71
2023/02/26 19:05:13;;;;;;;;;;;;;;;;;;5111494;27;19916;-69
2023/02/26 19:07:39;;;;;;;;;;;;;;;;;;5111447;28;20011;-69
2023/02/26 19:10:05;;;;;;;;;;;;;;;;;;5111141;28;19953;-69
2023/02/26 19:12:31;;;;;;;;;;;;;;;;;;5110956;28;19959;-69
2023/02/26 19:14:57;;;;;;;;;;;;;;;;;;5111445;28;20007;-69
2023/02/26 19:17:22;;;;;;;;;;;;;;;;;;5109934;28;19912;-70
2023/02/26 19:20:08;;;;;;;;;;;;;;;;;;5111677;27;20380;-71
2023/02/26 19:22:34;;;;;;;;;;;;;;;;;;5111556;28;19999;-70
2023/02/26 19:28:08;;;;;;;;;;;;;;;;;;5111133;27;19916;-71
2023/02/26 19:30:35;;;;;;;;;;;;;;;;;;5111774;28;19918;-69
2023/02/26 19:33:01;;;;;;;;;;;;;;;;;;5111491;28;19908;-71
2023/02/26 19:35:28;;;;;;;;;;;;;;;;;;5111079;28;19953;-69
2023/02/26 19:37:54;;;;;;;;;;;;;;;;;;5111452;28;19908;-71
2023/02/26 19:40:20;;;;;;;;;;;;;;;;;;5111029;28;19953;-71